createdAt,value
2018-03-16T00:00:00.154Z,98838.72
2018-03-16T00:01:02.658Z,98839.30
2018-03-16T00:02:05.215Z,98834.20
2018-03-16T00:03:07.708Z,98839.70
2018-03-16T00:04:10.213Z,98833.62
2018-03-16T00:05:12.721Z,98843.83
2018-03-16T00:06:15.206Z,98842.81
2018-03-16T00:07:17.775Z,98845.35
2018-03-16T00:08:20.276Z,98844.38
2018-03-16T00:09:22.811Z,98840.65
2018-03-16T00:10:25.308Z,98841.84
2018-03-16T00:11:27.816Z,98845.20
2018-03-16T00:12:30.361Z,98843.42
2018-03-16T00:13:32.883Z,98843.42
2018-03-16T00:14:35.389Z,98845.78
2018-03-16T00:15:37.885Z,98851.28
2018-03-16T00:16:40.394Z,98840.47
2018-03-16T00:17:42.928Z,98849.48
2018-03-16T00:18:45.441Z,98847.12
2018-03-16T00:19:47.926Z,98850.48
2018-03-16T00:20:50.444Z,98846.55
2018-03-16T00:21:52.954Z,98851.25
2018-03-16T00:22:55.474Z,98847.12
2018-03-16T00:23:57.985Z,98861.67
2018-03-16T00:25:00.470Z,98853.60
2018-03-16T00:26:02.963Z,98856.94
2018-03-16T00:27:05.458Z,98855.16
2018-03-16T00:28:08.019Z,98858.06
2018-03-16T00:29:10.517Z,98857.67
2018-03-16T00:30:13.031Z,98860.66
2018-03-16T00:31:15.539Z,98862.83
2018-03-16T00:32:18.031Z,98861.22
2018-03-16T00:33:20.564Z,98863.96
2018-03-16T00:34:23.065Z,98867.30
2018-03-16T00:35:25.559Z,98864.55
2018-03-16T00:36:28.052Z,98862.95
2018-03-16T00:37:30.557Z,98858.25
2018-03-16T00:38:33.083Z,98858.83
2018-03-16T00:39:35.584Z,98857.06
2018-03-16T00:40:38.085Z,98862.95
2018-03-16T00:41:40.608Z,98855.72
2018-03-16T00:42:43.122Z,98856.30
2018-03-16T00:43:45.635Z,98855.50
2018-03-16T00:44:48.140Z,98866.10
2018-03-16T00:45:50.651Z,98860.78
2018-03-16T00:46:53.153Z,98860.78
2018-03-16T00:47:55.683Z,98862.92
2018-03-16T00:48:58.190Z,98862.53
2018-03-16T00:50:00.706Z,98855.63
2018-03-16T00:51:03.223Z,98864.45
2018-03-16T00:52:05.728Z,98858.92
2018-03-16T00:53:08.287Z,98864.03
2018-03-16T00:54:10.786Z,98860.27
2018-03-16T00:55:13.293Z,98859.08
2018-03-16T00:56:15.775Z,98861.44
2018-03-16T00:57:18.282Z,98856.88
2018-03-16T00:58:20.779Z,98855.48
2018-03-16T00:59:23.282Z,98845.61
2018-03-16T01:00:25.790Z,98855.23
2018-03-16T01:01:28.293Z,98851.70
2018-03-16T01:02:30.804Z,98848.73
2018-03-16T01:03:33.308Z,98854.81
2018-03-16T01:04:35.836Z,98855.39
2018-03-16T01:05:38.331Z,98856.77
2018-03-16T01:06:40.842Z,98855.18
2018-03-16T01:07:43.340Z,98853.80
2018-03-16T01:08:45.869Z,98849.86
2018-03-16T01:09:48.379Z,98850.84
2018-03-16T01:10:50.894Z,98847.30
2018-03-16T01:11:53.411Z,98848.09
2018-03-16T01:12:55.925Z,98844.77
2018-03-16T01:13:58.424Z,98844.58
2018-03-16T01:15:00.955Z,98844.19
2018-03-16T01:16:03.464Z,98841.83
2018-03-16T01:17:05.951Z,98841.83
2018-03-16T01:18:08.458Z,98839.08
2018-03-16T01:19:10.969Z,98845.77
2018-03-16T01:20:13.510Z,98839.11
2018-03-16T01:21:16.012Z,98840.70
2018-03-16T01:22:18.527Z,98840.30
2018-03-16T01:23:21.036Z,98844.82
2018-03-16T01:24:23.527Z,98840.36
2018-03-16T01:25:26.070Z,98841.89
2018-03-16T01:26:28.564Z,98842.47
2018-03-16T01:27:32.265Z,98841.86
2018-03-16T01:28:34.780Z,98838.31
2018-03-16T01:29:37.282Z,98849.70
2018-03-16T01:30:39.824Z,98840.27
2018-03-16T01:31:42.337Z,98846.34
2018-03-16T01:32:44.907Z,98844.19
2018-03-16T01:33:47.399Z,98841.01
2018-03-16T01:34:49.920Z,98843.55
2018-03-16T01:35:52.438Z,98843.94
2018-03-16T01:36:54.965Z,98842.17
2018-03-16T01:37:57.484Z,98840.80
2018-03-16T01:38:59.990Z,98842.96
2018-03-16T01:40:02.507Z,98843.36
2018-03-16T01:41:05.018Z,98842.78
2018-03-16T01:42:07.519Z,98840.24
2018-03-16T01:43:10.021Z,98846.75
2018-03-16T01:44:12.537Z,98843.02
2018-03-16T01:45:15.024Z,98843.02
2018-03-16T01:46:17.549Z,98847.55
2018-03-16T01:47:20.086Z,98846.56
2018-03-16T01:48:22.600Z,98846.56
2018-03-16T01:49:25.117Z,98850.29
2018-03-16T01:50:27.638Z,98845.77
2018-03-16T01:51:30.146Z,98847.55
2018-03-16T01:52:32.644Z,98835.36
2018-03-16T01:53:35.163Z,98833.59
2018-03-16T01:54:37.676Z,98833.98
2018-03-16T01:55:40.186Z,98837.92
2018-03-16T01:56:42.727Z,98836.94
2018-03-16T01:57:45.329Z,98838.31
2018-03-16T01:58:47.836Z,98837.92
2018-03-16T01:59:50.323Z,98835.56
2018-03-16T02:00:52.843Z,98839.91
2018-03-16T02:01:55.399Z,98844.82
2018-03-16T02:02:57.928Z,98843.63
2018-03-16T02:04:00.428Z,98844.80
2018-03-16T02:05:02.955Z,98845.19
2018-03-16T02:06:05.443Z,98849.13
2018-03-16T02:07:07.966Z,98847.72
2018-03-16T02:08:10.470Z,98844.80
2018-03-16T02:09:12.959Z,98849.92
2018-03-16T02:10:15.469Z,98853.07
2018-03-16T02:11:17.997Z,98850.13
2018-03-16T02:12:20.529Z,98845.41
2018-03-16T02:13:23.046Z,98848.95
2018-03-16T02:14:25.562Z,98847.39
2018-03-16T02:15:28.055Z,98847.97
2018-03-16T02:16:30.571Z,98849.13
2018-03-16T02:17:33.078Z,98844.82
2018-03-16T02:18:35.568Z,98843.05
2018-03-16T02:19:38.076Z,98847.75
2018-03-16T02:20:40.603Z,98845.80
2018-03-16T02:21:43.143Z,98851.48
2018-03-16T02:22:45.679Z,98854.62
2018-03-16T02:23:48.185Z,98854.59
2018-03-16T02:24:50.687Z,98854.75
2018-03-16T02:25:53.206Z,98852.19
2018-03-16T02:26:55.699Z,98866.48
2018-03-16T02:27:58.230Z,98864.49
2018-03-16T02:29:00.733Z,98862.30
2018-03-16T02:30:03.282Z,98869.75
2018-03-16T02:31:05.844Z,98871.06
2018-03-16T02:32:08.367Z,98867.30
2018-03-16T02:33:10.904Z,98867.09
2018-03-16T02:34:13.422Z,98869.22
2018-03-16T02:35:16.084Z,98862.32
2018-03-16T02:36:18.600Z,98862.69
2018-03-16T02:37:21.109Z,98867.17
2018-03-16T02:38:23.620Z,98866.96
2018-03-16T02:39:26.162Z,98857.53
2018-03-16T02:40:28.669Z,98862.41
2018-03-16T02:41:31.192Z,98859.84
2018-03-16T02:42:33.699Z,98866.31
2018-03-16T02:43:36.234Z,98864.55
2018-03-16T02:44:38.748Z,98861.41
2018-03-16T02:45:41.263Z,98867.08
2018-03-16T02:46:43.770Z,98862.95
2018-03-16T02:47:46.296Z,98863.11
2018-03-16T02:48:48.799Z,98855.45
2018-03-16T02:49:51.327Z,98858.77
2018-03-16T02:50:53.832Z,98862.10
2018-03-16T02:51:56.338Z,98863.88
2018-03-16T02:52:58.889Z,98860.33
2018-03-16T02:54:01.411Z,98860.73
2018-03-16T02:55:03.979Z,98862.86
2018-03-16T02:56:06.491Z,98860.52
2018-03-16T02:57:08.997Z,98870.70
2018-03-16T02:58:11.504Z,98866.98
2018-03-16T02:59:14.018Z,98867.59
2018-03-16T03:00:16.524Z,98867.41
2018-03-16T03:01:19.045Z,98868.20
2018-03-16T03:02:21.553Z,98873.70
2018-03-16T03:03:24.057Z,98870.95
2018-03-16T03:04:26.747Z,98869.98
2018-03-16T03:05:29.304Z,98872.33
2018-03-16T03:06:31.809Z,98875.48
2018-03-16T03:07:34.316Z,98873.55
2018-03-16T03:08:36.836Z,98875.72
2018-03-16T03:09:39.356Z,98873.95
2018-03-16T03:10:41.878Z,98869.64
2018-03-16T03:11:44.380Z,98874.56
2018-03-16T03:12:46.902Z,98879.87
2018-03-16T03:13:49.409Z,98878.50
2018-03-16T03:14:51.918Z,98879.48
2018-03-16T03:15:54.553Z,98879.08
2018-03-16T03:16:57.052Z,98883.02
2018-03-16T03:17:59.550Z,98886.16
2018-03-16T03:19:02.057Z,98881.28
2018-03-16T03:20:04.563Z,98878.93
2018-03-16T03:21:07.060Z,98883.05
2018-03-16T03:22:09.571Z,98879.91
2018-03-16T03:23:12.065Z,98884.42
2018-03-16T03:24:14.577Z,98880.30
2018-03-16T03:25:17.124Z,98888.95
2018-03-16T03:26:19.629Z,98889.13
2018-03-16T03:27:22.136Z,98885.77
2018-03-16T03:28:24.647Z,98884.00
2018-03-16T03:29:27.152Z,98880.45
2018-03-16T03:30:29.700Z,98884.17
2018-03-16T03:31:32.221Z,98889.67
2018-03-16T03:32:34.714Z,98893.19
2018-03-16T03:33:37.224Z,98891.81
2018-03-16T03:34:39.722Z,98882.77
2018-03-16T03:35:42.225Z,98891.17
2018-03-16T03:36:44.714Z,98890.38
2018-03-16T03:37:47.199Z,98893.30
2018-03-16T03:38:49.690Z,98889.36
2018-03-16T03:39:52.185Z,98888.75
2018-03-16T03:40:54.694Z,98900.32
2018-03-16T03:41:57.227Z,98897.17
2018-03-16T03:42:59.732Z,98898.55
2018-03-16T03:44:02.234Z,98899.92
2018-03-16T03:45:04.733Z,98904.44
2018-03-16T03:46:07.252Z,98900.90
2018-03-16T03:47:09.772Z,98901.70
2018-03-16T03:48:12.286Z,98901.48
2018-03-16T03:49:14.796Z,98903.83
2018-03-16T03:50:17.286Z,98908.75
2018-03-16T03:51:19.794Z,98905.78
2018-03-16T03:52:22.289Z,98907.73
2018-03-16T03:53:24.792Z,98907.34
2018-03-16T03:54:27.290Z,98908.09
2018-03-16T03:55:29.790Z,98911.64
2018-03-16T03:56:32.331Z,98913.81
2018-03-16T03:57:34.820Z,98911.24
2018-03-16T03:58:37.303Z,98909.26
2018-03-16T03:59:39.804Z,98909.84
2018-03-16T04:00:42.304Z,98908.46
2018-03-16T04:01:44.825Z,98912.77
2018-03-16T04:02:47.348Z,98913.74
2018-03-16T04:03:49.890Z,98910.37
2018-03-16T04:04:52.377Z,98914.68
2018-03-16T04:05:54.932Z,98913.13
2018-03-16T04:06:57.403Z,98912.73
2018-03-16T04:07:59.915Z,98914.31
2018-03-16T04:09:02.420Z,98914.72
2018-03-16T04:10:04.933Z,98916.89
2018-03-16T04:11:07.445Z,98914.94
2018-03-16T04:12:09.999Z,98917.06
2018-03-16T04:13:12.525Z,98915.30
2018-03-16T04:14:15.043Z,98912.16
2018-03-16T04:15:17.538Z,98910.37
2018-03-16T04:16:20.055Z,98919.05
2018-03-16T04:17:22.573Z,98921.04
2018-03-16T04:18:25.091Z,98917.53
2018-03-16T04:19:27.605Z,98918.14
2018-03-16T04:20:30.113Z,98921.50
2018-03-16T04:21:32.629Z,98919.16
2018-03-16T04:22:35.164Z,98917.78
2018-03-16T04:23:37.675Z,98916.98
2018-03-16T04:24:40.163Z,98916.19
2018-03-16T04:25:42.673Z,98923.64
2018-03-16T04:26:45.176Z,98925.81
2018-03-16T04:27:47.702Z,98921.69
2018-03-16T04:28:50.204Z,98926.97
2018-03-16T04:29:52.694Z,98925.98
2018-03-16T04:30:55.200Z,98924.80
2018-03-16T04:31:57.690Z,98926.17
2018-03-16T04:33:00.229Z,98928.88
2018-03-16T04:34:03.019Z,98925.52
2018-03-16T04:35:05.529Z,98930.62
2018-03-16T04:36:08.027Z,98927.26
2018-03-16T04:37:10.522Z,98931.20
2018-03-16T04:38:13.057Z,98929.83
2018-03-16T04:39:15.547Z,98940.81
2018-03-16T04:40:18.057Z,98938.11
2018-03-16T04:41:20.554Z,98944.17
2018-03-16T04:42:23.154Z,98936.52
2018-03-16T04:43:25.678Z,98944.17
2018-03-16T04:44:28.272Z,98946.92
2018-03-16T04:45:30.776Z,98949.27
2018-03-16T04:46:33.285Z,98943.78
2018-03-16T04:47:35.788Z,98946.12
2018-03-16T04:48:38.346Z,98947.91
2018-03-16T04:49:40.868Z,98946.12
2018-03-16T04:50:43.386Z,98947.86
2018-03-16T04:51:45.898Z,98951.77
2018-03-16T04:52:48.420Z,98949.81
2018-03-16T04:53:50.945Z,98963.02
2018-03-16T04:54:53.434Z,98958.27
2018-03-16T04:55:55.975Z,98962.00
2018-03-16T04:56:58.467Z,98961.02
2018-03-16T04:58:00.970Z,98966.52
2018-03-16T04:59:03.501Z,98967.09
2018-03-16T05:00:06.007Z,98965.94
2018-03-16T05:01:08.510Z,98969.34
2018-03-16T05:02:10.999Z,98964.13
2018-03-16T05:03:13.556Z,98967.80
2018-03-16T05:04:16.050Z,98963.97
2018-03-16T05:05:18.562Z,98967.80
2018-03-16T05:06:21.083Z,98968.62
2018-03-16T05:07:23.598Z,98969.30
2018-03-16T05:08:26.106Z,98968.94
2018-03-16T05:09:28.634Z,98972.91
2018-03-16T05:10:31.153Z,98966.72
2018-03-16T05:11:33.676Z,98961.25
2018-03-16T05:12:36.188Z,98968.02
2018-03-16T05:13:38.715Z,98971.62
2018-03-16T05:14:41.241Z,98973.20
2018-03-16T05:15:43.752Z,98977.19
2018-03-16T05:16:46.252Z,98972.08
2018-03-16T05:17:48.759Z,98974.03
2018-03-16T05:18:51.264Z,98963.80
2018-03-16T05:19:53.822Z,98974.58
2018-03-16T05:20:56.398Z,98964.56
2018-03-16T05:21:58.904Z,98967.09
2018-03-16T05:23:01.424Z,98972.78
2018-03-16T05:24:03.915Z,98975.31
2018-03-16T05:25:06.426Z,98973.50
2018-03-16T05:26:08.954Z,98966.97
2018-03-16T05:27:11.469Z,98974.42
2018-03-16T05:28:13.997Z,98973.81
2018-03-16T05:29:16.544Z,98967.88
2018-03-16T05:30:19.089Z,98967.66
2018-03-16T05:31:21.859Z,98969.62
2018-03-16T05:32:24.397Z,98969.41
2018-03-16T05:33:26.921Z,98968.03
2018-03-16T05:34:29.438Z,98965.46
2018-03-16T05:35:31.969Z,98967.81
2018-03-16T05:36:34.494Z,98972.91
2018-03-16T05:37:37.037Z,98972.12
2018-03-16T05:38:41.527Z,98974.47
2018-03-16T05:39:44.051Z,98971.91
2018-03-16T05:40:46.629Z,98977.40
2018-03-16T05:41:49.108Z,98974.25
2018-03-16T05:42:51.656Z,98975.05
2018-03-16T05:43:54.173Z,98979.17
2018-03-16T05:44:56.681Z,98983.48
2018-03-16T05:45:59.211Z,98981.89
2018-03-16T05:47:01.700Z,98984.64
2018-03-16T05:48:04.257Z,98980.70
2018-03-16T05:49:06.761Z,98980.70
2018-03-16T05:50:09.296Z,98983.05
2018-03-16T05:51:11.941Z,98986.38
2018-03-16T05:52:14.639Z,98986.19
2018-03-16T05:53:17.382Z,98989.13
2018-03-16T05:54:19.893Z,98992.05
2018-03-16T05:55:22.399Z,98989.88
2018-03-16T05:56:24.925Z,98994.58
2018-03-16T05:57:27.424Z,98995.13
2018-03-16T05:58:29.939Z,98997.09
2018-03-16T05:59:32.448Z,98999.44
2018-03-16T06:00:34.970Z,98996.66
2018-03-16T06:01:37.538Z,98996.83
2018-03-16T06:02:40.055Z,98996.44
2018-03-16T06:03:42.560Z,98999.77
2018-03-16T06:04:45.061Z,99001.72
2018-03-16T06:05:47.590Z,99003.67
2018-03-16T06:06:50.115Z,99013.47
2018-03-16T06:07:52.610Z,99007.76
2018-03-16T06:08:55.114Z,99010.87
2018-03-16T06:09:57.654Z,99013.62
2018-03-16T06:11:00.165Z,99010.65
2018-03-16T06:12:02.717Z,99011.41
2018-03-16T06:13:05.229Z,99009.24
2018-03-16T06:14:07.748Z,99011.19
2018-03-16T06:15:10.280Z,99014.52
2018-03-16T06:16:12.799Z,99010.58
2018-03-16T06:17:15.316Z,99012.53
2018-03-16T06:18:17.833Z,99014.48
2018-03-16T06:19:20.326Z,99008.80
2018-03-16T06:20:22.862Z,99014.48
2018-03-16T06:21:25.380Z,99014.66
2018-03-16T06:22:27.923Z,99016.59
2018-03-16T06:23:30.443Z,99014.23
2018-03-16T06:24:32.943Z,99011.27
2018-03-16T06:25:35.444Z,99014.20
2018-03-16T06:26:37.968Z,99021.25
2018-03-16T06:27:40.505Z,99017.48
2018-03-16T06:28:43.019Z,99015.10
2018-03-16T06:29:45.526Z,99016.08
2018-03-16T06:30:48.023Z,99011.52
2018-03-16T06:31:50.527Z,99017.20
2018-03-16T06:32:53.039Z,99018.14
2018-03-16T06:33:55.538Z,99022.04
2018-03-16T06:34:58.038Z,99013.58
2018-03-16T06:36:00.561Z,99019.08
2018-03-16T06:37:03.163Z,99019.59
2018-03-16T06:38:05.697Z,99023.89
2018-03-16T06:39:08.488Z,99019.55
2018-03-16T06:40:11.256Z,99016.80
2018-03-16T06:41:13.784Z,99023.05
2018-03-16T06:42:16.288Z,99019.91
2018-03-16T06:43:18.840Z,99026.95
2018-03-16T06:44:21.494Z,99023.02
2018-03-16T06:45:24.053Z,99025.94
2018-03-16T06:46:26.563Z,99021.60
2018-03-16T06:47:29.125Z,99026.88
2018-03-16T06:48:31.735Z,99028.03
2018-03-16T06:49:34.295Z,99030.20
2018-03-16T06:50:36.827Z,99027.23
2018-03-16T06:51:39.358Z,99028.97
2018-03-16T06:52:41.884Z,99031.72
2018-03-16T06:53:44.486Z,99036.59
2018-03-16T06:54:46.999Z,99032.55
2018-03-16T06:55:49.518Z,99033.03
2018-03-16T06:56:52.069Z,99029.05
2018-03-16T06:57:54.581Z,99031.91
2018-03-16T06:58:57.094Z,99034.77
2018-03-16T06:59:59.605Z,99034.12
2018-03-16T07:01:02.113Z,99042.87
2018-03-16T07:02:04.614Z,99036.69
2018-03-16T07:03:07.115Z,99041.86
2018-03-16T07:04:10.499Z,99042.39
2018-03-16T07:05:13.019Z,99038.09
2018-03-16T07:06:15.533Z,99041.27
2018-03-16T07:07:18.050Z,99042.68
2018-03-16T07:08:20.579Z,99042.13
2018-03-16T07:09:23.116Z,99046.30
2018-03-16T07:10:25.616Z,99044.34
2018-03-16T07:11:28.117Z,99045.38
2018-03-16T07:12:30.629Z,99045.38
2018-03-16T07:13:33.125Z,99046.18
2018-03-16T07:14:35.636Z,99049.50
2018-03-16T07:15:38.138Z,99048.31
2018-03-16T07:16:40.631Z,99047.73
2018-03-16T07:17:43.135Z,99049.84
2018-03-16T07:18:45.643Z,99049.84
2018-03-16T07:19:48.154Z,99051.39
2018-03-16T07:20:50.651Z,99050.78
2018-03-16T07:21:53.142Z,99052.16
2018-03-16T07:22:55.649Z,99059.24
2018-03-16T07:23:58.174Z,99056.67
2018-03-16T07:25:00.708Z,99059.20
2018-03-16T07:26:03.203Z,99062.14
2018-03-16T07:27:05.693Z,99055.05
2018-03-16T07:28:08.197Z,99059.93
2018-03-16T07:29:10.712Z,99062.06
2018-03-16T07:30:13.253Z,99071.29
2018-03-16T07:31:15.761Z,99066.16
2018-03-16T07:32:18.285Z,99069.88
2018-03-16T07:33:20.799Z,99069.08
2018-03-16T07:34:23.301Z,99070.06
2018-03-16T07:35:25.811Z,99074.19
2018-03-16T07:36:28.307Z,99073.78
2018-03-16T07:37:30.817Z,99073.78
2018-03-16T07:38:33.313Z,99074.76
2018-03-16T07:39:35.851Z,99073.78
2018-03-16T07:40:38.358Z,99073.97
2018-03-16T07:41:40.863Z,99076.72
2018-03-16T07:42:43.347Z,99081.81
2018-03-16T07:43:45.831Z,99076.28
2018-03-16T07:44:48.323Z,99081.38
2018-03-16T07:45:56.481Z,99081.78
2018-03-16T07:46:58.989Z,99091.75
2018-03-16T07:48:01.499Z,99087.56
2018-03-16T07:49:04.003Z,99085.97
2018-03-16T07:50:06.504Z,99092.41
2018-03-16T07:51:09.048Z,99085.32
2018-03-16T07:52:11.613Z,99090.59
2018-03-16T07:53:14.077Z,99090.95
2018-03-16T07:54:16.600Z,99091.14
2018-03-16T07:55:19.114Z,99090.16
2018-03-16T07:56:21.741Z,99096.42
2018-03-16T07:57:24.239Z,99095.84
2018-03-16T07:58:26.752Z,99093.84
2018-03-16T07:59:29.250Z,99092.66
2018-03-16T08:00:31.735Z,99097.36
2018-03-16T08:01:34.349Z,99095.77
2018-03-16T08:02:36.856Z,99098.29
2018-03-16T08:03:39.355Z,99097.25
2018-03-16T08:04:41.860Z,99103.10
2018-03-16T08:05:44.380Z,99102.48
2018-03-16T08:06:47.149Z,99101.11
2018-03-16T08:07:49.656Z,99101.29
2018-03-16T08:08:52.164Z,99103.42
2018-03-16T08:09:54.692Z,99104.58
2018-03-16T08:10:57.197Z,99106.70
2018-03-16T08:11:59.721Z,99105.52
2018-03-16T08:13:02.242Z,99109.23
2018-03-16T08:14:04.751Z,99106.67
2018-03-16T08:15:07.295Z,99111.15
2018-03-16T08:16:09.808Z,99111.91
2018-03-16T08:17:12.348Z,99112.48
2018-03-16T08:18:14.843Z,99115.59
2018-03-16T08:19:17.348Z,99112.84
2018-03-16T08:20:19.835Z,99118.88
2018-03-16T08:21:22.415Z,99116.13
2018-03-16T08:22:24.976Z,99119.86
2018-03-16T08:23:27.499Z,99113.39
2018-03-16T08:24:30.014Z,99120.91
2018-03-16T08:25:32.533Z,99120.91
2018-03-16T08:26:35.036Z,99121.70
2018-03-16T08:27:37.571Z,99121.16
2018-03-16T08:28:40.091Z,99122.26
2018-03-16T08:29:42.618Z,99123.02
2018-03-16T08:30:45.105Z,99125.35
2018-03-16T08:31:47.779Z,99125.53
2018-03-16T08:32:50.320Z,99121.34
2018-03-16T08:33:52.830Z,99115.42
2018-03-16T08:34:55.332Z,99122.11
2018-03-16T08:35:57.907Z,99119.44
2018-03-16T08:37:00.534Z,99125.15
2018-03-16T08:38:03.074Z,99118.67
2018-03-16T08:39:05.661Z,99123.77
2018-03-16T08:40:08.157Z,99118.06
2018-03-16T08:41:10.655Z,99120.81
2018-03-16T08:42:13.175Z,99123.77
2018-03-16T08:43:15.714Z,99121.78
2018-03-16T08:44:18.235Z,99121.13
2018-03-16T08:45:20.807Z,99120.52
2018-03-16T08:46:23.331Z,99121.45
2018-03-16T08:47:25.836Z,99113.53
2018-03-16T08:48:28.379Z,99117.95
2018-03-16T08:49:30.881Z,99118.49
2018-03-16T08:50:33.400Z,99123.38
2018-03-16T08:51:35.998Z,99120.37
2018-03-16T08:52:38.516Z,99123.66
2018-03-16T08:53:41.055Z,99123.80
2018-03-16T08:54:43.574Z,99123.58
2018-03-16T08:55:46.089Z,99125.97
2018-03-16T08:56:48.602Z,99122.78
2018-03-16T08:57:51.105Z,99126.63
2018-03-16T08:58:53.649Z,99125.61
2018-03-16T08:59:56.153Z,99123.22
2018-03-16T09:00:58.679Z,99124.95
2018-03-16T09:02:01.213Z,99127.30
2018-03-16T09:03:03.795Z,99125.61
2018-03-16T09:04:06.404Z,99128.22
2018-03-16T09:05:08.913Z,99128.68
2018-03-16T09:06:11.421Z,99127.70
2018-03-16T09:07:13.926Z,99129.08
2018-03-16T09:08:16.443Z,99130.89
2018-03-16T09:09:18.987Z,99133.86
2018-03-16T09:10:21.475Z,99127.46
2018-03-16T09:11:23.968Z,99127.14
2018-03-16T09:12:26.505Z,99128.69
2018-03-16T09:13:29.020Z,99138.97
2018-03-16T09:14:31.571Z,99140.37
2018-03-16T09:15:34.072Z,99135.78
2018-03-16T09:16:36.587Z,99136.57
2018-03-16T09:17:39.092Z,99138.81
2018-03-16T09:18:41.610Z,99138.70
2018-03-16T09:19:44.122Z,99138.19
2018-03-16T09:20:46.606Z,99140.44
2018-03-16T09:21:49.090Z,99137.20
2018-03-16T09:22:51.597Z,99143.42
2018-03-16T09:23:54.103Z,99138.72
2018-03-16T09:24:56.610Z,99142.66
2018-03-16T09:25:59.123Z,99142.12
2018-03-16T09:27:01.643Z,99144.11
2018-03-16T09:28:04.161Z,99148.78
2018-03-16T09:29:06.810Z,99148.56
2018-03-16T09:30:09.336Z,99145.78
2018-03-16T09:31:11.865Z,99141.59
2018-03-16T09:32:14.364Z,99141.37
2018-03-16T09:33:16.850Z,99141.12
2018-03-16T09:34:19.352Z,99142.83
2018-03-16T09:35:21.864Z,99143.15
2018-03-16T09:36:24.378Z,99146.81
2018-03-16T09:37:26.882Z,99149.67
2018-03-16T09:38:29.403Z,99144.89
2018-03-16T09:39:31.910Z,99150.33
2018-03-16T09:40:34.432Z,99144.36
2018-03-16T09:41:36.933Z,99146.45
2018-03-16T09:42:39.431Z,99150.30
2018-03-16T09:43:41.922Z,99157.13
2018-03-16T09:44:44.441Z,99149.20
2018-03-16T09:45:46.964Z,99155.42
2018-03-16T09:46:49.483Z,99151.09
2018-03-16T09:47:52.028Z,99152.93
2018-03-16T09:48:54.529Z,99154.27
2018-03-16T09:49:57.032Z,99161.10
2018-03-16T09:50:59.557Z,99157.34
2018-03-16T09:52:02.094Z,99152.95
2018-03-16T09:53:04.615Z,99158.23
2018-03-16T09:54:07.129Z,99152.30
2018-03-16T09:55:21.515Z,99158.16
2018-03-16T09:56:24.039Z,99160.29
2018-03-16T09:57:26.554Z,99159.82
2018-03-16T09:58:29.092Z,99157.03
2018-03-16T09:59:31.591Z,99162.89
2018-03-16T10:00:34.086Z,99161.88
2018-03-16T10:01:36.614Z,99165.38
2018-03-16T10:02:39.159Z,99166.13
2018-03-16T10:03:41.736Z,99164.10
2018-03-16T10:04:44.272Z,99161.14
2018-03-16T10:05:46.776Z,99161.89
2018-03-16T10:06:49.462Z,99165.36
2018-03-16T10:07:52.014Z,99166.70
2018-03-16T10:08:54.541Z,99169.41
2018-03-16T10:09:57.052Z,99164.48
2018-03-16T10:10:59.554Z,99165.42
2018-03-16T10:12:02.123Z,99166.18
2018-03-16T10:13:04.613Z,99162.98
2018-03-16T10:14:07.140Z,99165.34
2018-03-16T10:15:09.644Z,99166.09
2018-03-16T10:16:12.139Z,99169.20
2018-03-16T10:17:14.666Z,99171.33
2018-03-16T10:18:17.173Z,99170.53
2018-03-16T10:19:19.694Z,99174.41
2018-03-16T10:20:22.218Z,99167.31
2018-03-16T10:21:24.773Z,99172.59
2018-03-16T10:22:27.301Z,99173.74
2018-03-16T10:23:29.798Z,99170.20
2018-03-16T10:24:32.339Z,99177.42
2018-03-16T10:25:34.850Z,99170.33
2018-03-16T10:26:37.373Z,99177.37
2018-03-16T10:27:39.908Z,99174.02
2018-03-16T10:28:42.418Z,99174.98
2018-03-16T10:29:44.930Z,99175.97
2018-03-16T10:30:47.540Z,99182.39
2018-03-16T10:31:50.055Z,99177.07
2018-03-16T10:32:52.597Z,99175.30
2018-03-16T10:33:55.119Z,99181.55
2018-03-16T10:34:57.639Z,99175.44
2018-03-16T10:36:00.159Z,99176.81
2018-03-16T10:37:02.664Z,99178.73
2018-03-16T10:38:05.178Z,99179.48
2018-03-16T10:39:07.699Z,99177.89
2018-03-16T10:40:10.259Z,99179.84
2018-03-16T10:41:12.765Z,99187.68
2018-03-16T10:42:15.268Z,99184.31
2018-03-16T10:43:17.798Z,99184.48
2018-03-16T10:44:20.301Z,99193.30
2018-03-16T10:45:22.794Z,99182.67
2018-03-16T10:46:25.391Z,99186.97
2018-03-16T10:47:27.911Z,99189.09
2018-03-16T10:48:30.463Z,99187.91
2018-03-16T10:49:32.978Z,99190.25
2018-03-16T10:50:35.509Z,99192.74
2018-03-16T10:51:38.013Z,99197.29
2018-03-16T10:52:40.532Z,99191.95
2018-03-16T10:53:43.072Z,99192.13
2018-03-16T10:54:45.601Z,99195.05
2018-03-16T10:55:48.104Z,99191.50
2018-03-16T10:56:50.619Z,99196.74
2018-03-16T10:57:53.125Z,99196.74
2018-03-16T10:58:55.642Z,99197.50
2018-03-16T10:59:58.148Z,99198.06
2018-03-16T11:01:00.664Z,99196.70
2018-03-16T11:02:08.950Z,99198.82
2018-03-16T11:03:15.396Z,99195.86
2018-03-16T11:04:17.933Z,99205.47
2018-03-16T11:05:26.126Z,99201.92
2018-03-16T11:06:34.675Z,99206.97
2018-03-16T11:07:47.127Z,99206.00
2018-03-16T11:08:49.644Z,99200.86
2018-03-16T11:09:52.150Z,99200.45
2018-03-16T11:10:54.786Z,99202.01
2018-03-16T11:11:57.306Z,99207.50
2018-03-16T11:12:59.808Z,99204.17
2018-03-16T11:14:02.335Z,99204.62
2018-03-16T11:15:04.865Z,99215.74
2018-03-16T11:16:07.390Z,99209.80
2018-03-16T11:17:09.921Z,99209.65
2018-03-16T11:18:12.440Z,99215.48
2018-03-16T11:19:14.956Z,99209.59
2018-03-16T11:20:17.486Z,99215.97
2018-03-16T11:21:19.993Z,99212.58
2018-03-16T11:22:22.478Z,99216.39
2018-03-16T11:23:24.994Z,99216.44
2018-03-16T11:24:27.514Z,99214.52
2018-03-16T11:25:30.054Z,99214.97
2018-03-16T11:26:32.553Z,99218.11
2018-03-16T11:27:35.067Z,99221.08
2018-03-16T11:28:37.580Z,99216.56
2018-03-16T11:29:40.088Z,99218.51
2018-03-16T11:30:42.638Z,99222.05
2018-03-16T11:31:45.146Z,99221.26
2018-03-16T11:32:47.689Z,99216.52
2018-03-16T11:33:50.213Z,99218.07
2018-03-16T11:34:52.729Z,99227.06
2018-03-16T11:35:55.250Z,99222.94
2018-03-16T11:36:57.763Z,99215.89
2018-03-16T11:38:00.291Z,99217.89
2018-03-16T11:39:02.778Z,99218.41
2018-03-16T11:40:05.287Z,99221.67
2018-03-16T11:41:07.804Z,99217.22
2018-03-16T11:42:10.297Z,99213.52
2018-03-16T11:43:12.815Z,99218.34
2018-03-16T11:44:15.302Z,99221.07
2018-03-16T11:45:17.807Z,99216.70
2018-03-16T11:46:20.319Z,99218.91
2018-03-16T11:47:22.827Z,99214.91
2018-03-16T11:48:25.328Z,99222.31
2018-03-16T11:49:27.829Z,99218.99
2018-03-16T11:50:30.350Z,99223.50
2018-03-16T11:51:32.877Z,99220.48
2018-03-16T11:52:35.366Z,99223.17
2018-03-16T11:53:37.878Z,99221.70
2018-03-16T11:54:40.385Z,99223.33
2018-03-16T11:55:42.889Z,99224.34
2018-03-16T11:56:45.407Z,99223.17
2018-03-16T11:57:47.923Z,99225.38
2018-03-16T11:58:50.438Z,99230.89
2018-03-16T11:59:52.927Z,99227.89
2018-03-16T12:00:55.560Z,99233.22
2018-03-16T12:01:58.129Z,99239.09
2018-03-16T12:03:00.727Z,99233.28
2018-03-16T12:04:03.234Z,99237.31
2018-03-16T12:05:05.727Z,99231.77
2018-03-16T12:06:08.288Z,99231.45
2018-03-16T12:07:10.821Z,99237.13
2018-03-16T12:08:13.349Z,99241.35
2018-03-16T12:09:15.846Z,99238.44
2018-03-16T12:10:18.383Z,99239.20
2018-03-16T12:11:20.956Z,99239.02
2018-03-16T12:12:23.517Z,99238.99
2018-03-16T12:13:26.035Z,99235.66
2018-03-16T12:14:28.549Z,99237.61